createdAt,value
2018-06-02T00:00:19.300Z,18.90
2018-06-02T00:02:47.674Z,19.00
2018-06-02T00:05:16.027Z,18.90
2018-06-02T00:07:44.344Z,19.00
2018-06-02T00:10:13.429Z,19.10
2018-06-02T00:12:41.856Z,19.10
2018-06-02T00:15:10.172Z,19.00
2018-06-02T00:17:38.474Z,18.90
2018-06-02T00:20:07.560Z,18.70
2018-06-02T00:22:36.638Z,18.60
2018-06-02T00:25:04.969Z,18.60
2018-06-02T00:27:33.285Z,18.60
2018-06-02T00:30:01.589Z,18.60
2018-06-02T00:32:30.648Z,18.70
2018-06-02T00:34:58.956Z,18.70
2018-06-02T00:37:28.030Z,18.60
2018-06-02T00:39:56.341Z,18.60
2018-06-02T00:42:24.666Z,18.50
2018-06-02T00:44:52.987Z,18.40
2018-06-02T00:47:22.064Z,18.60
2018-06-02T00:49:51.150Z,18.70
2018-06-02T00:52:19.511Z,18.70
2018-06-02T00:55:05.571Z,18.70
2018-06-02T00:57:33.873Z,18.70
2018-06-02T01:00:02.168Z,18.60
2018-06-02T01:02:30.465Z,18.60
2018-06-02T01:04:59.551Z,18.70
2018-06-02T01:07:27.966Z,18.70
2018-06-02T01:09:56.641Z,18.70
2018-06-02T01:12:24.959Z,18.70
2018-06-02T01:14:53.271Z,18.80
2018-06-02T01:17:22.341Z,18.80
2018-06-02T01:19:50.680Z,18.80
2018-06-02T01:22:18.976Z,18.60
2018-06-02T01:24:47.285Z,18.30
2018-06-02T01:27:15.611Z,18.20
2018-06-02T01:29:43.902Z,18.10
2018-06-02T01:32:12.241Z,18.00
2018-06-02T01:34:40.558Z,18.00
2018-06-02T01:37:08.896Z,18.00
2018-06-02T01:39:38.427Z,17.90
2018-06-02T01:42:06.752Z,17.90
2018-06-02T01:44:35.093Z,17.90
2018-06-02T01:47:04.164Z,18.00
2018-06-02T01:49:32.545Z,18.00
2018-06-02T01:52:01.068Z,17.90
2018-06-02T01:54:29.383Z,17.80
2018-06-02T01:56:58.497Z,17.80
2018-06-02T01:59:26.805Z,17.70
2018-06-02T02:01:55.881Z,17.80
2018-06-02T02:04:24.759Z,17.70
2018-06-02T02:06:53.243Z,17.80
2018-06-02T02:09:21.557Z,17.80
2018-06-02T02:11:49.867Z,17.80
2018-06-02T02:14:18.936Z,17.70
2018-06-02T02:16:47.240Z,17.70
2018-06-02T02:19:15.549Z,17.70
2018-06-02T02:21:43.851Z,17.80
2018-06-02T02:24:12.376Z,17.70
2018-06-02T02:26:40.699Z,17.80
2018-06-02T02:29:09.083Z,17.80
2018-06-02T02:31:37.402Z,17.80
2018-06-02T02:34:05.706Z,17.80
2018-06-02T02:36:34.030Z,17.80
2018-06-02T02:39:02.335Z,17.80
2018-06-02T02:41:30.647Z,17.80
2018-06-02T02:43:58.969Z,17.90
2018-06-02T02:46:28.120Z,18.00
2018-06-02T02:48:56.867Z,18.00
2018-06-02T02:51:25.223Z,18.00
2018-06-02T02:53:54.363Z,18.00
2018-06-02T02:56:22.665Z,18.00
2018-06-02T02:58:50.964Z,18.10
2018-06-02T03:01:19.277Z,18.10
2018-06-02T03:03:47.598Z,18.10
2018-06-02T03:06:15.921Z,18.10
2018-06-02T03:08:44.991Z,18.10
2018-06-02T03:11:13.389Z,18.10
2018-06-02T03:13:41.644Z,18.10
2018-06-02T03:16:09.970Z,18.20
2018-06-02T03:18:39.183Z,18.10
2018-06-02T03:21:07.485Z,18.10
2018-06-02T03:23:35.833Z,18.10
2018-06-02T03:26:04.182Z,18.20
2018-06-02T03:28:32.509Z,18.20
2018-06-02T03:31:00.816Z,18.20
2018-06-02T03:33:29.883Z,18.20
2018-06-02T03:35:58.468Z,18.20
2018-06-02T03:38:26.872Z,18.20
2018-06-02T03:40:55.937Z,18.20
2018-06-02T03:43:24.438Z,18.20
2018-06-02T03:45:53.507Z,18.20
2018-06-02T03:48:21.823Z,18.20
2018-06-02T03:50:50.892Z,18.20
2018-06-02T03:53:19.215Z,18.20
2018-06-02T03:55:47.531Z,18.20
2018-06-02T03:58:15.851Z,18.20
2018-06-02T04:00:44.170Z,18.20
2018-06-02T04:03:12.479Z,18.30
2018-06-02T04:05:40.796Z,18.30
2018-06-02T04:08:09.119Z,18.40
2018-06-02T04:10:37.435Z,18.50
2018-06-02T04:13:05.751Z,18.50
2018-06-02T04:15:34.165Z,18.60
2018-06-02T04:18:03.243Z,18.70
2018-06-02T04:20:31.552Z,18.70
2018-06-02T04:23:01.298Z,18.80
2018-06-02T04:25:29.605Z,18.80
2018-06-02T04:27:57.925Z,18.80
2018-06-02T04:30:26.229Z,18.80
2018-06-02T04:32:54.542Z,18.90
2018-06-02T04:35:22.848Z,19.00
2018-06-02T04:37:51.176Z,19.00
2018-06-02T04:40:20.290Z,19.00
2018-06-02T04:42:48.601Z,19.00
2018-06-02T04:45:16.935Z,19.10
2018-06-02T04:47:45.260Z,19.00
2018-06-02T04:50:13.587Z,19.20
2018-06-02T04:52:41.918Z,19.30
2018-06-02T04:55:10.222Z,19.30
2018-06-02T04:57:39.216Z,19.30
2018-06-02T05:00:07.542Z,19.20
2018-06-02T05:02:36.632Z,19.20
2018-06-02T05:05:05.747Z,19.20
2018-06-02T05:07:34.072Z,19.20
2018-06-02T05:10:03.105Z,19.20
2018-06-02T05:12:31.437Z,19.20
2018-06-02T05:14:59.746Z,19.30
2018-06-02T05:17:28.835Z,19.40
2018-06-02T05:19:57.916Z,19.30
2018-06-02T05:22:26.224Z,19.30
2018-06-02T05:24:54.512Z,19.30
2018-06-02T05:27:22.844Z,19.40
2018-06-02T05:29:51.918Z,19.40
2018-06-02T05:32:20.251Z,19.30
2018-06-02T05:34:48.574Z,19.40
2018-06-02T05:37:16.892Z,19.30
2018-06-02T05:39:45.970Z,19.30
2018-06-02T05:42:14.301Z,19.30
2018-06-02T05:44:42.605Z,19.40
2018-06-02T05:47:10.931Z,19.30
2018-06-02T05:49:39.423Z,19.40
2018-06-02T05:52:07.755Z,19.50
2018-06-02T05:54:36.944Z,19.60
2018-06-02T05:57:05.845Z,19.50
2018-06-02T05:59:34.958Z,19.60
2018-06-02T06:02:04.306Z,19.60
2018-06-02T06:04:32.632Z,19.70
2018-06-02T06:07:01.717Z,19.60
2018-06-02T06:09:30.099Z,19.60
2018-06-02T06:11:59.191Z,19.50
2018-06-02T06:14:28.273Z,19.70
2018-06-02T06:16:57.389Z,19.60
2018-06-02T06:19:26.663Z,19.80
2018-06-02T06:21:55.000Z,19.80
2018-06-02T06:24:23.350Z,19.70
2018-06-02T06:26:51.695Z,19.80
2018-06-02T06:29:20.000Z,19.80
2018-06-02T06:31:49.093Z,19.90
2018-06-02T06:34:18.215Z,19.90
2018-06-02T06:36:46.573Z,19.90
2018-06-02T06:39:14.893Z,19.90
2018-06-02T06:41:43.209Z,19.90
2018-06-02T06:44:12.341Z,19.90
2018-06-02T06:46:40.649Z,19.90
2018-06-02T06:49:09.476Z,20.10
2018-06-02T06:51:37.959Z,20.00
2018-06-02T06:54:06.312Z,20.10
2018-06-02T06:56:34.635Z,20.10
2018-06-02T06:59:02.962Z,20.20
2018-06-02T07:01:31.926Z,20.50
2018-06-02T07:04:00.286Z,20.60
2018-06-02T07:06:28.620Z,20.50
2018-06-02T07:08:57.740Z,20.40
2018-06-02T07:11:26.075Z,20.40
2018-06-02T07:13:54.410Z,20.60
2018-06-02T07:16:22.967Z,20.70
2018-06-02T07:18:51.289Z,21.10
2018-06-02T07:21:19.759Z,21.30
2018-06-02T07:23:48.114Z,21.20
2018-06-02T07:26:16.800Z,20.90
2018-06-02T07:28:45.129Z,20.90
2018-06-02T07:31:13.471Z,20.90
2018-06-02T07:33:41.942Z,20.70
2018-06-02T07:36:10.341Z,20.80
2018-06-02T07:38:38.852Z,20.70
2018-06-02T07:41:07.183Z,20.70
2018-06-02T07:43:35.536Z,20.90
2018-06-02T07:46:03.873Z,20.90
2018-06-02T07:48:33.043Z,21.20
2018-06-02T07:51:01.827Z,21.10
2018-06-02T07:53:30.217Z,21.20
2018-06-02T07:55:58.543Z,21.60
2018-06-02T07:58:27.945Z,21.50
2018-06-02T08:00:57.028Z,21.60
2018-06-02T08:03:25.365Z,21.50
2018-06-02T08:05:53.699Z,21.30
2018-06-02T08:08:22.158Z,21.20
2018-06-02T08:10:51.258Z,21.50
2018-06-02T08:13:20.361Z,21.40
2018-06-02T08:15:49.488Z,21.50
2018-06-02T08:18:17.865Z,21.50
2018-06-02T08:20:46.167Z,21.30
2018-06-02T08:23:14.521Z,21.40
2018-06-02T08:25:42.881Z,21.80
2018-06-02T08:28:11.186Z,22.20
2018-06-02T08:30:40.529Z,21.90
2018-06-02T08:33:08.904Z,22.40
2018-06-02T08:35:37.223Z,22.50
2018-06-02T08:38:05.570Z,22.70
2018-06-02T08:40:34.723Z,22.30
2018-06-02T08:43:03.805Z,21.80
2018-06-02T08:45:32.174Z,21.70
2018-06-02T08:48:00.507Z,22.10
2018-06-02T08:50:29.618Z,22.50
2018-06-02T08:52:58.696Z,22.70
2018-06-02T08:55:28.493Z,22.40
2018-06-02T08:57:56.888Z,22.40
2018-06-02T09:00:26.474Z,23.10
2018-06-02T09:02:55.589Z,23.20
2018-06-02T09:05:24.715Z,22.90
2018-06-02T09:07:53.073Z,22.90
2018-06-02T09:10:21.409Z,22.70
2018-06-02T09:12:49.716Z,22.40
2018-06-02T09:15:18.810Z,22.60
2018-06-02T09:17:47.907Z,22.90
2018-06-02T09:20:17.058Z,23.00
2018-06-02T09:22:45.360Z,23.00
2018-06-02T09:25:13.722Z,22.60
2018-06-02T09:27:42.174Z,22.80
2018-06-02T09:30:10.487Z,22.90
2018-06-02T09:32:38.809Z,23.10
2018-06-02T09:35:07.168Z,23.20
2018-06-02T09:37:35.480Z,23.10
2018-06-02T09:40:03.824Z,23.50
2018-06-02T09:42:32.165Z,23.40
2018-06-02T09:45:00.500Z,23.70
2018-06-02T09:47:29.212Z,23.80
2018-06-02T09:49:57.529Z,24.40
2018-06-02T09:52:26.509Z,24.60
2018-06-02T09:54:54.831Z,24.50
2018-06-02T09:57:23.171Z,24.50
2018-06-02T09:59:52.293Z,24.20
2018-06-02T10:02:20.629Z,24.20
2018-06-02T10:04:48.945Z,24.40
2018-06-02T10:07:17.260Z,24.20
2018-06-02T10:09:45.590Z,24.20
2018-06-02T10:12:13.926Z,24.50
2018-06-02T10:14:42.242Z,24.40
2018-06-02T10:17:11.405Z,24.40
2018-06-02T10:19:39.702Z,24.40
2018-06-02T10:22:08.850Z,24.40
2018-06-02T10:24:37.394Z,24.40
2018-06-02T10:27:06.566Z,25.20
2018-06-02T10:29:35.009Z,25.20
2018-06-02T10:32:03.340Z,24.80
2018-06-02T10:34:32.429Z,24.60
2018-06-02T10:37:01.526Z,24.70
2018-06-02T10:39:30.869Z,24.50
2018-06-02T10:41:59.203Z,24.50
2018-06-02T10:44:28.293Z,25.30
2018-06-02T10:46:57.382Z,25.60
2018-06-02T10:49:26.962Z,25.80
2018-06-02T10:51:55.296Z,25.80
2018-06-02T10:54:23.815Z,25.70
2018-06-02T10:56:52.135Z,25.60
2018-06-02T10:59:21.293Z,25.90
2018-06-02T11:01:49.664Z,25.90
2018-06-02T11:04:17.995Z,25.80
2018-06-02T11:06:46.324Z,25.80
2018-06-02T11:09:14.611Z,25.80
2018-06-02T11:11:43.730Z,25.80
2018-06-02T11:14:12.816Z,25.40
2018-06-02T11:16:41.910Z,25.30
2018-06-02T11:19:11.003Z,25.50
2018-06-02T11:21:40.720Z,25.40
2018-06-02T11:24:09.826Z,25.30
2018-06-02T11:26:39.175Z,25.10
2018-06-02T11:29:07.532Z,25.00
2018-06-02T11:31:36.204Z,25.40
2018-06-02T11:34:04.522Z,26.00
2018-06-02T11:36:32.861Z,26.00
2018-06-02T11:39:01.169Z,25.80
2018-06-02T11:41:30.232Z,25.60
2018-06-02T11:43:58.562Z,25.30
2018-06-02T11:46:27.079Z,25.40
2018-06-02T11:48:55.426Z,25.60
2018-06-02T11:51:23.788Z,25.70
2018-06-02T11:53:52.082Z,25.10
2018-06-02T11:56:20.427Z,25.00
2018-06-02T11:58:48.733Z,25.00
2018-06-02T12:01:17.040Z,24.90
2018-06-02T12:03:45.352Z,24.80
2018-06-02T12:06:13.715Z,24.70
2018-06-02T12:08:42.054Z,24.70
2018-06-02T12:11:11.229Z,24.90
2018-06-02T12:13:39.643Z,24.90
2018-06-02T12:16:07.972Z,24.70
2018-06-02T12:18:37.695Z,25.30
2018-06-02T12:21:06.074Z,25.30
2018-06-02T12:23:35.162Z,25.20
2018-06-02T12:26:03.515Z,25.20
2018-06-02T12:28:31.876Z,25.60
2018-06-02T12:31:00.189Z,25.80
2018-06-02T12:33:28.594Z,25.60
2018-06-02T12:35:57.686Z,25.60
2018-06-02T12:38:26.016Z,25.60
2018-06-02T12:40:54.335Z,25.60
2018-06-02T12:43:23.441Z,25.40
2018-06-02T12:45:52.522Z,25.30
2018-06-02T12:48:21.592Z,25.20
2018-06-02T12:50:49.946Z,25.20
2018-06-02T12:53:18.308Z,25.00
2018-06-02T12:55:47.416Z,25.00
2018-06-02T12:58:15.746Z,25.00
2018-06-02T13:00:44.877Z,23.70
2018-06-02T13:03:13.194Z,23.60
2018-06-02T13:05:41.594Z,23.10
2018-06-02T13:08:09.913Z,22.80
2018-06-02T13:10:38.416Z,21.90
2018-06-02T13:13:08.517Z,20.80
2018-06-02T13:15:36.808Z,20.80
2018-06-02T13:18:05.134Z,20.60
2018-06-02T13:20:34.187Z,20.50
2018-06-02T13:23:03.273Z,20.30
2018-06-02T13:25:31.586Z,20.30
2018-06-02T13:27:59.936Z,20.10
2018-06-02T13:30:28.256Z,19.70
2018-06-02T13:32:57.354Z,19.50
2018-06-02T13:35:25.712Z,19.50
2018-06-02T13:37:54.829Z,19.40
2018-06-02T13:40:23.185Z,19.40
2018-06-02T13:42:51.533Z,19.70
2018-06-02T13:45:19.856Z,20.00
2018-06-02T13:47:48.929Z,20.40
2018-06-02T13:50:17.261Z,20.40
2018-06-02T13:52:45.593Z,20.50
2018-06-02T13:55:14.670Z,20.50
2018-06-02T13:57:43.697Z,20.50
2018-06-02T14:00:12.049Z,20.70
2018-06-02T14:02:41.404Z,20.90
2018-06-02T14:05:09.716Z,20.90
2018-06-02T14:07:38.091Z,21.00
2018-06-02T14:10:06.401Z,21.00
2018-06-02T14:12:34.760Z,20.90
2018-06-02T14:15:03.052Z,20.50
2018-06-02T14:17:31.393Z,20.40
2018-06-02T14:19:59.710Z,20.20
2018-06-02T14:22:28.294Z,20.20
2018-06-02T14:24:56.612Z,20.20
2018-06-02T14:27:24.942Z,20.20
2018-06-02T14:29:53.264Z,20.30
2018-06-02T14:32:21.598Z,20.10
2018-06-02T14:34:49.920Z,20.20
2018-06-02T14:37:18.292Z,20.30
2018-06-02T14:39:46.601Z,20.40
2018-06-02T14:42:14.906Z,20.50
2018-06-02T14:44:43.401Z,20.70
2018-06-02T14:47:11.816Z,20.80
2018-06-02T14:49:40.156Z,20.60
2018-06-02T14:52:08.464Z,20.30
2018-06-02T14:54:36.797Z,20.20
2018-06-02T14:57:05.128Z,20.10
2018-06-02T14:59:33.466Z,20.00
2018-06-02T15:02:01.776Z,20.10
2018-06-02T15:04:30.149Z,20.10
2018-06-02T15:06:58.452Z,20.10
2018-06-02T15:09:26.769Z,20.00
2018-06-02T15:11:55.113Z,20.10
2018-06-02T15:14:24.193Z,20.20
2018-06-02T15:16:52.500Z,20.20
2018-06-02T15:19:21.593Z,20.20
2018-06-02T15:21:50.672Z,20.10
2018-06-02T15:24:19.785Z,20.20
2018-06-02T15:26:48.537Z,20.10
2018-06-02T15:29:16.878Z,20.20
2018-06-02T15:31:45.227Z,20.30
2018-06-02T15:34:13.581Z,20.20
2018-06-02T15:36:42.840Z,20.30
2018-06-02T15:39:11.138Z,20.30
2018-06-02T15:41:39.451Z,20.40
2018-06-02T15:44:07.771Z,20.40
2018-06-02T15:46:36.080Z,20.30
2018-06-02T15:49:04.422Z,20.20
2018-06-02T15:51:32.742Z,20.20
2018-06-02T15:54:01.881Z,20.20
2018-06-02T15:56:30.198Z,20.20
2018-06-02T15:58:58.525Z,20.30
2018-06-02T16:01:27.146Z,20.30
2018-06-02T16:03:55.455Z,20.30
2018-06-02T16:06:24.523Z,20.30
2018-06-02T16:08:52.860Z,20.20
2018-06-02T16:11:21.175Z,20.30
2018-06-02T16:13:50.232Z,20.30
2018-06-02T16:16:18.541Z,20.30
2018-06-02T16:18:46.883Z,20.30
2018-06-02T16:21:15.193Z,20.30
2018-06-02T16:23:43.512Z,20.40
2018-06-02T16:26:12.576Z,20.40
2018-06-02T16:28:41.651Z,20.40
2018-06-02T16:31:09.992Z,20.40
2018-06-02T16:33:38.930Z,20.40
2018-06-02T16:36:07.236Z,20.30
2018-06-02T16:38:36.319Z,20.30
2018-06-02T16:41:04.666Z,20.40
2018-06-02T16:43:33.022Z,20.30
2018-06-02T16:46:01.333Z,20.30
2018-06-02T16:48:29.664Z,20.30
2018-06-02T16:50:57.986Z,20.40
2018-06-02T16:53:27.088Z,20.60
2018-06-02T16:55:55.406Z,20.50
2018-06-02T16:58:23.799Z,20.80
2018-06-02T17:00:52.618Z,20.90
2018-06-02T17:03:20.940Z,21.00
2018-06-02T17:05:50.024Z,20.50
2018-06-02T17:08:18.362Z,20.50
2018-06-02T17:10:46.730Z,20.30
2018-06-02T17:13:15.122Z,20.30
2018-06-02T17:15:43.524Z,20.20
2018-06-02T17:18:11.860Z,20.00
2018-06-02T17:20:40.192Z,20.00
2018-06-02T17:23:09.271Z,20.00
2018-06-02T17:25:38.382Z,19.90
2018-06-02T17:28:07.480Z,19.90
2018-06-02T17:30:35.807Z,19.80
2018-06-02T17:33:04.127Z,19.80
2018-06-02T17:35:33.276Z,19.80
2018-06-02T17:38:01.590Z,19.80
2018-06-02T17:40:30.091Z,19.70
2018-06-02T17:42:59.249Z,19.60
2018-06-02T17:45:27.573Z,19.70
2018-06-02T17:47:55.940Z,19.60
2018-06-02T17:50:24.275Z,19.60
2018-06-02T17:52:52.649Z,19.60
2018-06-02T17:55:20.971Z,19.50
2018-06-02T17:57:49.279Z,19.40
2018-06-02T18:00:17.593Z,19.40
2018-06-02T18:02:45.921Z,19.40
2018-06-02T18:05:14.263Z,19.40
2018-06-02T18:07:43.344Z,19.30
2018-06-02T18:10:12.504Z,19.40
2018-06-02T18:12:41.030Z,19.30
2018-06-02T18:15:09.371Z,19.30
2018-06-02T18:17:37.699Z,19.30
2018-06-02T18:20:06.049Z,19.40
2018-06-02T18:22:34.457Z,19.30
2018-06-02T18:25:02.770Z,19.30
2018-06-02T18:27:31.070Z,19.30
2018-06-02T18:29:59.396Z,19.30
2018-06-02T18:32:27.690Z,19.30
2018-06-02T18:34:56.804Z,19.30
2018-06-02T18:37:25.140Z,19.40
2018-06-02T18:39:53.510Z,19.40
2018-06-02T18:42:21.868Z,19.50
2018-06-02T18:44:50.956Z,19.40
2018-06-02T18:47:20.037Z,19.40
2018-06-02T18:49:48.350Z,19.30
2018-06-02T18:52:16.662Z,19.30
2018-06-02T18:54:45.012Z,19.30
2018-06-02T18:57:13.327Z,19.30
2018-06-02T18:59:41.637Z,19.20
2018-06-02T19:02:10.709Z,19.20
2018-06-02T19:04:39.056Z,19.20
2018-06-02T19:07:07.366Z,19.20
2018-06-02T19:09:35.680Z,19.20
2018-06-02T19:12:04.034Z,19.20
2018-06-02T19:14:33.127Z,19.30
2018-06-02T19:17:01.437Z,19.30
2018-06-02T19:19:29.865Z,19.40
2018-06-02T19:21:59.004Z,19.40
2018-06-02T19:24:27.314Z,19.30
2018-06-02T19:26:55.649Z,19.30
2018-06-02T19:29:24.759Z,19.30
2018-06-02T19:31:53.078Z,19.30
2018-06-02T19:34:21.378Z,19.30
2018-06-02T19:36:49.688Z,19.30
2018-06-02T19:39:17.987Z,19.20
2018-06-02T19:41:46.323Z,19.10
2018-06-02T19:44:15.446Z,19.10
2018-06-02T19:46:43.765Z,19.10
2018-06-02T19:49:12.065Z,19.20
2018-06-02T19:51:41.266Z,19.20
2018-06-02T19:54:10.803Z,19.30
2018-06-02T19:56:39.138Z,19.30
2018-06-02T19:59:08.215Z,19.40
2018-06-02T20:01:36.643Z,19.40
2018-06-02T20:04:05.278Z,19.40
2018-06-02T20:06:33.593Z,19.50
2018-06-02T20:09:01.893Z,19.50
2018-06-02T20:11:30.909Z,19.40
2018-06-02T20:13:59.212Z,19.30
2018-06-02T20:16:27.799Z,19.30
2018-06-02T20:18:56.869Z,19.10
2018-06-02T20:21:25.180Z,19.10
2018-06-02T20:23:54.269Z,19.00
2018-06-02T20:26:23.380Z,18.90
2018-06-02T20:28:51.695Z,18.90
2018-06-02T20:31:20.011Z,18.90
2018-06-02T20:33:49.104Z,18.90
2018-06-02T20:36:18.188Z,18.90
2018-06-02T20:38:46.482Z,18.80
2018-06-02T20:41:15.559Z,18.90
2018-06-02T20:43:43.860Z,18.90
2018-06-02T20:46:12.934Z,19.20
2018-06-02T20:48:42.166Z,19.30
2018-06-02T20:51:10.776Z,19.30
2018-06-02T20:53:39.135Z,19.40
2018-06-02T20:56:07.610Z,19.30
2018-06-02T20:58:35.901Z,19.30
2018-06-02T21:01:04.249Z,19.40
2018-06-02T21:03:32.540Z,19.40
2018-06-02T21:06:00.856Z,19.30
2018-06-02T21:08:29.165Z,19.30
2018-06-02T21:10:58.247Z,19.30
2018-06-02T21:13:26.743Z,19.30
2018-06-02T21:15:55.836Z,19.20
2018-06-02T21:18:24.919Z,19.10
2018-06-02T21:20:53.256Z,19.10
2018-06-02T21:23:21.558Z,19.10
2018-06-02T21:25:49.870Z,19.20
2018-06-02T21:28:18.945Z,19.20
2018-06-02T21:30:47.253Z,19.20
2018-06-02T21:33:15.578Z,19.20
2018-06-02T21:35:43.876Z,19.10
2018-06-02T21:38:12.949Z,19.10
2018-06-02T21:40:41.257Z,19.10
2018-06-02T21:43:10.995Z,19.10
2018-06-02T21:45:40.133Z,19.10
2018-06-02T21:48:08.449Z,19.10
2018-06-02T21:50:36.775Z,19.10
2018-06-02T21:53:05.094Z,19.10
2018-06-02T21:55:34.158Z,19.10
2018-06-02T21:58:02.478Z,19.00
2018-06-02T22:00:30.810Z,19.00
2018-06-02T22:02:59.125Z,19.10
2018-06-02T22:05:27.428Z,19.00
2018-06-02T22:07:55.758Z,19.10
2018-06-02T22:10:24.815Z,19.10
2018-06-02T22:12:53.140Z,19.10
2018-06-02T22:15:21.444Z,19.10
2018-06-02T22:17:49.785Z,19.00
2018-06-02T22:20:19.339Z,18.90
2018-06-02T22:22:47.642Z,18.90
2018-06-02T22:25:15.944Z,18.90
2018-06-02T22:27:45.021Z,18.70
2018-06-02T22:30:14.113Z,18.70
2018-06-02T22:32:42.426Z,18.60
2018-06-02T22:35:10.742Z,18.60
2018-06-02T22:37:39.060Z,18.50
2018-06-02T22:40:08.140Z,18.60
2018-06-02T22:42:36.468Z,18.60
2018-06-02T22:45:04.784Z,18.60
2018-06-02T22:47:33.106Z,18.50
2018-06-02T22:50:01.455Z,18.60
2018-06-02T22:52:30.150Z,18.50
2018-06-02T22:54:59.207Z,18.50
2018-06-02T22:57:27.507Z,18.40
2018-06-02T22:59:55.851Z,18.50
2018-06-02T23:02:24.133Z,18.50
2018-06-02T23:04:52.425Z,18.50
2018-06-02T23:07:20.768Z,18.50
2018-06-02T23:09:49.135Z,18.50
2018-06-02T23:12:17.840Z,18.50
2018-06-02T23:14:46.199Z,18.50
2018-06-02T23:17:14.715Z,18.60
2018-06-02T23:19:43.012Z,18.60
2018-06-02T23:22:39.476Z,18.50
2018-06-02T23:25:07.773Z,18.50
2018-06-02T23:27:36.117Z,18.50
2018-06-02T23:30:05.241Z,18.60
2018-06-02T23:32:33.540Z,18.50
2018-06-02T23:35:01.840Z,18.50
2018-06-02T23:37:30.282Z,18.70
2018-06-02T23:39:58.593Z,18.70
2018-06-02T23:45:21.127Z,18.80
2018-06-02T23:47:50.643Z,18.80
2018-06-02T23:50:20.878Z,18.70
2018-06-02T23:52:50.418Z,18.60
2018-06-02T23:55:20.603Z,18.50
2018-06-02T23:57:50.133Z,18.40
